Latest Weather Observations for Moorabbin Airport

IDV60901

Issued at 11:21 pm EDT Saturday 19 January 2019 (issued every 10 minutes, with the page automatically refreshed every 10 minutes)

About weather observations | Map of Melbourne area stations | Latest observations for Melbourne area | Other Formats
Station Details ID: 086077 Name: MOORABBIN AIRPORT Lat: -37.98 Lon: 145.10 Height: 12.1 m
Data from the previous 72 hours. | See also: Recent months at Moorabbin Airport
Date/Time
EDT
Temp
°C
App
Temp
°C
Dew
Point
°C
Rel
Hum
%
Delta-T
°C
Wind Press
QNH
hPa
Press
MSL
hPa
Rain since
9am
mm
Dir  Spd
km/h
Gust
km/h
Spd
kts
Gust
kts
19/11:00pm 16.9 14.1 11.2 69 3.1 SSE 17 22 9 12 1022.4 1022.4 0.0
19/10:30pm 17.1 14.2 10.9 67 3.3 SSE 17 22 9 12 1022.5 1022.5 0.0
19/10:00pm 17.4 14.4 10.8 65 3.5 SSE 17 26 9 14 1022.4 1022.4 0.0
19/09:30pm 17.9 14.4 10.8 63 3.8 SSE 20 24 11 13 1022.1 1022.1 0.0
19/09:00pm 18.3 15.1 9.9 58 4.4 SSE 17 22 9 12 1021.8 1021.8 0.0
19/08:30pm 19.0 16.1 9.8 55 4.9 S 15 20 8 11 1021.5 1021.5 0.0
19/08:00pm 19.8 16.3 10.2 54 5.1 S 19 24 10 13 1021.2 1021.2 0.0
19/07:30pm 20.5 16.5 10.6 53 5.4 S 22 28 12 15 1020.8 1020.8 0.0
19/07:00pm 21.0 16.7 12.2 57 4.9 SSW 26 33 14 18 1020.6 1020.6 0.0
19/06:30pm 21.1 16.6 11.4 54 5.4 SSW 26 37 14 20 1020.5 1020.5 0.0
19/06:00pm 21.4 17.4 11.7 54 5.4 SW 24 33 13 18 1020.4 1020.4 0.0
19/05:30pm 21.7 18.1 11.7 53 5.6 SW 22 32 12 17 1020.8 1020.8 0.0
19/05:00pm 21.9 18.6 11.6 52 5.7 SW 20 28 11 15 1020.8 1020.8 0.0
19/04:30pm 22.0 18.4 11.7 52 5.8 SSW 22 30 12 16 1021.1 1021.1 0.0
19/04:00pm 21.6 18.0 9.8 47 6.3 SSW 19 24 10 13 1021.3 1021.3 0.0
19/03:30pm 22.3 18.8 10.8 48 6.3 SSW 20 28 11 15 1021.3 1021.3 0.0
19/03:00pm 22.1 19.2 10.9 49 6.2 S 17 24 9 13 1021.6 1021.6 0.0
19/02:30pm 21.4 17.9 10.9 51 5.8 SSW 20 30 11 16 1021.9 1021.9 0.0
19/02:00pm 22.0 18.4 12.0 53 5.6 SW 22 30 12 16 1022.0 1022.0 0.0
19/01:30pm 21.6 17.5 11.6 53 5.6 SW 24 33 13 18 1022.0 1022.0 0.0
19/01:00pm 21.3 17.2 11.6 54 5.4 SW 24 33 13 18 1021.9 1021.9 0.0
19/12:30pm 21.4 18.1 11.7 54 5.4 SW 20 30 11 16 1021.7 1021.7 0.0
19/12:00pm 20.3 16.5 11.0 55 5.1 SW 22 32 12 17 1021.5 1021.5 0.0
19/11:30am 20.1 16.6 10.8 55 5.1 SSW 20 30 11 16 1021.5 1021.5 0.0
19/11:00am 20.7 17.5 11.3 55 5.2 SW 19 26 10 14 1021.3 1021.3 0.0
19/10:30am 20.1 17.6 11.1 56 4.9 SW 15 24 8 13 1021.1 1021.1 0.0
19/10:00am 19.8 16.8 10.5 55 5.0 SW 17 26 9 14 1021.0 1021.0 0.0
19/09:30am 19.4 16.6 11.4 60 4.4 SW 17 24 9 13 1020.9 1020.9 0.0
19/09:00am 19.0 16.2 11.3 61 4.2 SW 17 24 9 13 1020.7 1020.7 2.8
19/08:30am 18.8 16.1 11.6 63 4.0 SW 17 22 9 12 1020.2 1020.2 2.8
19/08:00am 18.6 16.6 11.4 63 3.9 SSW 13 17 7 9 1019.7 1019.7 2.8
19/07:30am 17.8 15.4 11.4 66 3.5 SW 15 20 8 11 1019.3 1019.3 2.8
19/07:00am 17.5 15.1 11.3 67 3.4 SW 15 20 8 11 1018.9 1018.9 2.8
19/06:30am 17.4 14.6 11.2 67 3.4 SW 17 20 9 11 1018.4 1018.4 2.8
19/06:00am 17.6 14.8 10.0 61 4.0 SSW 15 24 8 13 1018.1 1018.1 2.8
19/05:30am 17.7 14.7 10.6 63 3.8 SW 17 24 9 13 1017.8 1017.8 2.8
19/05:00am 17.9 14.9 10.8 63 3.8 SW 17 22 9 12 1017.5 1017.5 2.8
19/04:30am 18.1 14.6 10.2 60 4.2 SSW 19 26 10 14 1017.2 1017.2 2.8
19/04:00am 18.1 15.2 11.0 63 3.8 SW 17 24 9 13 1017.2 1017.2 2.8
19/03:30am 18.0 14.9 11.6 66 3.5 SW 19 26 10 14 1017.3 1017.3 2.8
19/03:00am 18.3 15.3 12.7 70 3.1 SSW 20 28 11 15 1017.3 1017.3 2.8
19/02:30am 18.6 15.7 12.8 69 3.3 SSW 20 32 11 17 1017.2 1017.2 2.8
19/02:00am 18.6 16.7 13.0 70 3.1 SW 15 22 8 12 1016.9 1016.9 2.8
19/01:30am 18.3 15.6 13.6 74 2.7 SW 20 28 11 15 1016.8 1016.8 2.8
19/01:00am 19.0 17.8 14.1 73 2.8 SSW 13 17 7 9 1016.8 1016.8 2.8
19/12:30am 19.0 17.5 14.3 74 2.7 SW 15 20 8 11 1016.6 1016.6 2.8
19/12:00am 19.1 17.4 14.6 75 2.6 SSW 17 26 9 14 1016.5 1016.5 2.8
 
Date/Time
EDT
Temp
°C
App
Temp
°C
Dew
Point
°C
Rel
Hum
%
Delta-T
°C
Wind Press
QNH
hPa
Press
MSL
hPa
Rain since
9am
mm
Dir  Spd
km/h
Gust
km/h
Spd
kts
Gust
kts
18/11:30pm 19.6 17.7 14.2 71 3.1 SSW 17 24 9 13 1016.3 1016.3 2.8
18/11:00pm 19.2 18.6 13.4 69 3.3 SSW 9 13 5 7 1016.2 1016.2 2.8
18/10:30pm 19.8 17.2 13.3 66 3.7 SW 19 28 10 15 1016.2 1016.2 2.8
18/10:00pm 20.1 17.5 13.3 65 3.9 SW 19 28 10 15 1015.6 1015.6 2.8
18/09:30pm 20.0 17.4 13.7 67 3.6 SSW 20 32 11 17 1015.0 1015.0 2.8
18/09:00pm 20.4 17.8 15.0 71 3.2 SSW 22 32 12 17 1014.4 1014.4 2.8
18/08:30pm 20.4 18.2 16.0 76 2.6 SSW 22 30 12 16 1013.6 1013.6 2.8
18/08:13pm 20.2 18.7 16.2 78 2.4 SSW 19 28 10 15 1013.3 1013.3 2.8
18/08:00pm 20.0 17.9 16.2 79 2.3 SSW 22 30 12 16 1013.2 1013.2 2.8
18/07:30pm 20.2 17.2 16.8 81 2.1 SSW 28 37 15 20 1012.0 1012.0 2.8
18/07:00pm 20.6 18.7 17.6 83 1.8 SSW 24 37 13 20 1011.3 1011.3 2.8
18/06:42pm 20.7 18.9 17.9 84 1.7 SSW 24 37 13 20 1011.0 1011.0 2.8
18/06:30pm 20.8 19.0 17.8 83 1.9 SSW 24 32 13 17 1010.5 1010.5 2.8
18/06:00pm 21.1 19.2 18.5 85 1.6 SSW 26 37 14 20 1009.9 1009.9 2.8
18/05:30pm 21.6 22.3 18.8 84 1.8 SW 13 20 7 11 1010.4 1010.4 2.8
18/05:00pm 22.2 22.5 18.8 81 2.1 SW 15 26 8 14 1010.2 1010.2 2.8
18/04:30pm 22.4 24.5 19.0 81 2.2 W 6 9 3 5 1008.9 1008.9 2.8
18/04:00pm 22.7 24.9 19.5 82 2.0 SW 7 9 4 5 1008.7 1008.7 2.8
18/03:30pm 22.5 23.7 20.0 86 1.6 SSW 13 17 7 9 1008.3 1008.3 2.8
18/03:00pm 21.9 22.2 19.6 87 1.5 SSW 17 22 9 12 1008.5 1008.5 2.8
18/02:30pm 21.7 21.9 19.4 87 1.5 SW 17 22 9 12 1009.1 1009.1 2.8
18/02:00pm 22.2 24.3 20.1 88 1.4 SSW 9 13 5 7 1009.6 1009.6 2.8
18/01:45pm 21.8 22.5 19.7 88 1.3 SW 15 20 8 11 1009.3 1009.3 2.8
18/01:30pm 22.0 23.6 19.9 88 1.3 SW 11 15 6 8 1009.1 1009.1 2.8
18/01:29pm 22.0 23.6 19.9 88 1.3 SW 11 15 6 8 1009.1 1009.1 2.8
18/01:00pm 22.5 26.0 20.4 88 1.4 SW 2 9 1 5 1008.4 1008.4 2.8
18/12:30pm 22.0 24.5 19.9 88 1.3 W 6 11 3 6 1008.1 1008.1 2.8
18/12:00pm 21.7 21.3 19.3 86 1.5 SSE 20 28 11 15 1008.1 1008.1 1.8
18/11:30am 24.2 25.9 20.1 78 2.7 SW 11 17 6 9 1009.1 1009.1 0.8
18/11:00am 24.9 25.2 18.8 69 3.9 WSW 15 20 8 11 1009.6 1009.6 0.8
18/10:30am 27.4 28.3 16.7 52 6.7 NNW 7 9 4 5 1007.6 1007.6 0.0
18/10:00am 27.3 28.1 17.2 54 6.3 WSW 9 15 5 8 1007.9 1007.9 0.0
18/09:30am 26.2 26.2 18.1 61 5.1 W 15 28 8 15 1008.5 1008.5 0.0
18/09:00am 26.5 26.2 16.4 53 6.2 NW 13 17 7 9 1007.9 1007.9 0.2
18/08:30am 27.4 27.7 17.0 53 6.5 NW 11 17 6 9 1007.3 1007.3 0.2
18/08:00am 26.7 27.6 16.0 52 6.6 NW 6 11 3 6 1007.0 1007.0 0.2
18/07:30am 25.1 26.0 16.0 57 5.5 NNE 6 13 3 7 1006.4 1006.4 0.2
18/07:00am 24.1 24.5 16.4 62 4.7 SW 9 13 5 7 1006.4 1006.4 0.2
18/06:30am 24.3 22.9 16.6 62 4.7 NNE 19 22 10 12 1006.2 1006.2 0.2
18/06:00am 23.7 21.7 16.5 64 4.4 NE 22 28 12 15 1006.4 1006.4 0.2
18/05:30am 22.4 22.7 16.9 71 3.4 E 11 19 6 10 1007.1 1007.1 0.2
18/05:00am 22.7 22.5 17.6 73 3.2 NE 15 20 8 11 1007.7 1007.7 0.2
18/04:30am 21.9 22.9 18.7 82 2.0 NE 11 13 6 7 1006.8 1006.8 0.2
18/04:00am 21.8 24.1 18.6 82 2.0 NE 4 9 2 5 1007.0 1007.0 0.2
18/03:30am 21.8 22.3 19.2 85 1.6 NE 15 17 8 9 1007.3 1007.3 0.2
18/03:00am 22.1 23.9 18.7 81 2.1 SSW 7 11 4 6 1008.3 1008.3 0.2
18/02:35am 22.4 23.2 17.3 73 3.1 SSW 9 20 5 11 1007.7 1007.7 0.2
18/02:30am 23.2 24.0 17.4 70 3.6 SW 9 15 5 8 1009.8 1009.8 0.2
18/02:09am 23.2 24.3 17.2 69 3.7 N 7 26 4 14 1010.9 1010.9 0.0
18/02:00am 22.7 24.9 16.5 68 3.8 CALM 0 0 0 0 1008.8 1008.8 0.0
18/01:30am 22.7 23.7 16.3 67 3.9 SSE 6 6 3 3 1008.4 1008.4 0.0
18/01:00am 23.8 25.9 17.1 66 4.1 NE 2 6 1 3 1008.8 1008.8 0.0
18/12:30am 23.5 25.5 17.0 67 4.0 ENE 2 11 1 6 1008.8 1008.8 0.0
18/12:00am 24.2 26.7 17.2 65 4.3 CALM 0 0 0 0 1009.8 1009.8 0.0
 
Date/Time
EDT
Temp
°C
App
Temp
°C
Dew
Point
°C
Rel
Hum
%
Delta-T
°C
Wind Press
QNH
hPa
Press
MSL
hPa
Rain since
9am
mm
Dir  Spd
km/h
Gust
km/h
Spd
kts
Gust
kts
17/11:30pm 23.8 26.3 17.3 67 4.0 CALM 0 7 0 4 1009.8 1009.8 0.0
17/11:00pm 23.6 24.6 16.9 66 4.1 NNE 7 7 4 4 1009.5 1009.5 0.0
17/10:30pm 24.1 25.3 16.9 64 4.4 N 6 9 3 5 1009.7 1009.7 0.0
17/10:00pm 24.7 24.3 17.2 63 4.7 SSW 15 20 8 11 1009.4 1009.4 0.0
17/09:30pm 25.0 23.7 17.2 62 4.8 SSW 20 32 11 17 1009.3 1009.3 0.0
17/09:00pm 25.8 24.7 17.2 59 5.4 SSW 19 28 10 15 1008.6 1008.6 0.0
17/08:40pm 28.8 27.6 17.0 49 7.4 WSW 19 39 10 21 1008.4 1008.4 0.0
17/08:30pm 30.2 29.9 15.5 41 9.1 W 11 20 6 11 1007.7 1007.7 0.0
17/08:00pm 30.7 31.3 15.2 39 9.6 NW 6 11 3 6 1007.0 1007.0 0.0
17/07:30pm 31.3 30.9 15.3 38 9.9 NW 11 13 6 7 1007.0 1007.0 0.0
17/07:00pm 32.0 32.3 15.1 36 10.5 NNW 7 11 4 6 1006.5 1006.5 0.0
17/06:30pm 31.6 32.1 15.5 37 10.0 NNW 7 11 4 6 1006.3 1006.3 0.0
17/06:00pm 31.2 32.1 16.0 40 9.5 NNW 6 11 3 6 1006.4 1006.4 0.0
17/05:30pm 31.4 31.8 16.2 40 9.5 NNE 9 11 5 6 1006.6 1006.6 0.0
17/05:00pm 31.5 32.3 16.3 40 9.6 NE 7 13 4 7 1006.5 1006.5 0.0
17/04:30pm 31.1 31.3 16.7 42 9.1 N 11 15 6 8 1006.7 1006.7 0.0
17/04:00pm 31.0 31.1 16.6 42 9.1 W 11 15 6 8 1007.4 1007.4 0.0
17/03:30pm 30.0 30.0 17.1 46 8.1 WNW 13 26 7 14 1008.2 1008.2 0.0
17/03:00pm 32.2 30.5 15.7 37 10.3 W 19 30 10 16 1008.8 1008.8 0.0
17/02:30pm 30.6 33.6 19.3 51 7.4 NW 2 7 1 4 1008.0 1008.0 0.0
17/02:00pm 28.8 31.2 18.9 55 6.4 SSE 4 7 2 4 1007.7 1007.7 0.0
17/01:30pm 28.9 30.2 18.4 53 6.7 WNW 9 15 5 8 1008.1 1008.1 0.0
17/01:00pm 27.1 28.0 18.4 59 5.6 NNE 11 17 6 9 1007.4 1007.4 0.0
17/12:30pm 25.6 26.5 18.3 64 4.6 NE 11 15 6 8 1008.2 1008.2 0.0
17/12:00pm 24.7 26.1 18.6 69 3.9 SW 9 11 5 6 1009.2 1009.2 0.0
17/11:30am 25.3 27.0 18.0 64 4.6 SW 6 9 3 5 1009.0 1009.0 0.0
17/11:00am 25.2 26.4 17.4 62 4.9 N 7 11 4 6 1008.9 1008.9 0.0
17/10:30am 24.4 25.8 17.4 65 4.4 WNW 6 9 3 5 1009.5 1009.5 0.0
17/10:00am 23.9 25.0 18.1 70 3.6 WNW 9 11 5 6 1009.5 1009.5 0.0
17/09:30am 23.1 24.7 19.1 78 2.5 W 9 11 5 6 1009.5 1009.5 0.0
17/09:00am 22.7 23.7 19.5 82 2.0 WSW 13 19 7 10 1009.8 1009.8 0.0
17/08:30am 22.6 22.4 19.4 82 2.0 SW 19 26 10 14 1009.1 1009.1 0.0
17/08:00am 22.8 25.1 19.8 83 1.9 W 7 13 4 7 1007.6 1007.6 0.0
17/07:30am 22.0 24.2 19.2 84 1.8 WSW 6 9 3 5 1007.0 1007.0 0.0
17/07:00am 21.7 23.8 18.9 84 1.8 SSE 6 7 3 4 1006.4 1006.4 0.0
17/06:30am 21.7 23.6 18.9 84 1.8 ENE 7 15 4 8 1006.1 1006.1 0.0
17/06:00am 21.6 22.9 19.2 86 1.5 ENE 11 13 6 7 1006.6 1006.6 0.0
17/05:30am 21.8 23.9 19.0 84 1.8 NW 6 7 3 4 1007.7 1007.7 0.0
17/05:00am 21.9 23.7 18.3 80 2.3 SW 6 9 3 5 1007.9 1007.9 0.0
17/04:30am 21.9 23.2 17.5 76 2.7 NW 7 13 4 7 1007.7 1007.7 0.0
17/04:00am 22.2 22.8 17.6 75 2.9 W 11 15 6 8 1007.6 1007.6 0.0
17/03:30am 21.5 21.9 18.1 81 2.1 SW 13 19 7 10 1007.3 1007.3 0.0
17/03:00am 21.3 23.1 18.3 83 1.9 NE 6 11 3 6 1006.5 1006.5 0.0
17/02:30am 20.9 22.7 18.3 85 1.6 NNW 6 9 3 5 1007.1 1007.1 0.0
17/02:00am 21.2 22.6 18.6 85 1.6 NNE 9 11 5 6 1007.1 1007.1 0.0
17/01:30am 21.2 23.0 18.4 84 1.7 N 6 13 3 7 1007.9 1007.9 0.0
17/01:00am 21.5 22.8 18.5 83 1.9 W 9 13 5 7 1008.2 1008.2 0.0
17/12:30am 21.2 22.4 17.4 79 2.3 W 7 9 4 5 1008.0 1008.0 0.0
17/12:00am 21.2 22.8 17.0 77 2.6 NW 4 9 2 5 1008.1 1008.1 0.0
 
Date/Time
EDT
Temp
°C
App
Temp
°C
Dew
Point
°C
Rel
Hum
%
Delta-T
°C
Wind Press
QNH
hPa
Press
MSL
hPa
Rain since
9am
mm
Dir  Spd
km/h
Gust
km/h
Spd
kts
Gust
kts
16/11:30pm 21.1 23.3 16.5 75 2.8 CALM 0 0 0 0 1008.5 1008.5 0.0

Latest Capital City Observations: Canberra | Sydney | Melbourne | Brisbane | Adelaide | Perth | Hobart | Darwin

Other Formats:

Comma delimited format used in spreadsheet applications
http://www.bom.gov.au/fwo/IDV60901/IDV60901.94870.axf

JavaScript Object Notation format (JSON) in row-major order
http://www.bom.gov.au/fwo/IDV60901/IDV60901.94870.json